Time;durP1;ratioP1;P1;durP2;ratioP2;P2;SDS_P1;SDS_P2;PMS_P1;PMS_P2;Temp;Humidity;BMP_temperature;BMP_pressure;BME280_temperature;BME280_humidity;BME280_pressure;Samples;Min_cycle;Max_cycle;Signal;HPM_P1;HPM_P2
2023/08/06 00:04:01;;;;;;;12.00;9.40;;;;;;;19.05;100.00;97643.75;273151;1269;22239;-83
2023/08/06 00:10:03;;;;;;;12.40;9.00;;;;;;;19.02;100.00;97659.96;273240;1267;23489;-84
2023/08/06 00:16:09;;;;;;;14.00;10.30;;;;;;;18.99;100.00;97638.45;273215;1262;22541;-85
2023/08/06 00:22:13;;;;;;;12.60;11.30;;;;;;;18.97;100.00;97596.46;273300;1266;22410;-84
2023/08/06 00:28:15;;;;;;;20.30;14.80;;;;;;;18.98;100.00;97608.17;273652;1269;22278;-83
2023/08/06 00:34:17;;;;;;;29.70;20.50;;;;;;;19.01;100.00;97650.81;273067;1269;23481;-83
2023/08/06 00:40:21;;;;;;;35.50;24.00;;;;;;;19.03;100.00;97614.91;273267;1269;103821;-84
2023/08/06 00:46:24;;;;;;;43.50;26.40;;;;;;;19.04;100.00;97600.59;273205;1269;22394;-82
2023/08/06 00:52:25;;;;;;;43.90;27.80;;;;;;;19.05;100.00;97580.89;272677;1262;22292;-83
2023/08/06 00:58:30;;;;;;;42.60;28.20;;;;;;;19.05;100.00;97489.53;271639;1254;22753;-87
2023/08/06 01:04:33;;;;;;;47.60;27.80;;;;;;;19.02;100.00;97440.73;272162;1269;22192;-85
2023/08/06 01:10:57;;;;;;;45.00;29.00;;;;;;;19.01;100.00;97514.69;272739;1269;22557;-84
2023/08/06 01:17:00;;;;;;;49.90;29.80;;;;;;;19.03;100.00;97578.56;271381;1269;22549;-85
2023/08/06 01:23:01;;;;;;;55.80;29.10;;;;;;;19.04;100.00;97567.40;273118;1269;22415;-85
2023/08/06 01:29:10;;;;;;;49.90;26.60;;;;;;;19.03;100.00;97531.93;273276;1269;22520;-86
2023/08/06 01:35:14;;;;;;;39.20;23.10;;;;;;;19.06;100.00;97523.58;273147;1265;22131;-84
2023/08/06 01:41:15;;;;;;;45.80;24.50;;;;;;;19.06;100.00;97512.02;272246;1269;24396;-84
2023/08/06 01:47:17;;;;;;;39.30;24.40;;;;;;;19.06;100.00;97504.63;271829;1262;22548;-84
2023/08/06 01:53:20;;;;;;;42.80;24.10;;;;;;;19.09;100.00;97493.00;271465;1269;22243;-85
2023/08/06 01:59:22;;;;;;;40.20;22.20;;;;;;;19.10;100.00;97487.07;270797;1269;22391;-84
2023/08/06 02:05:23;;;;;;;33.50;22.00;;;;;;;19.10;100.00;97477.48;272200;1269;23156;-86
2023/08/06 02:11:25;;;;;;;31.50;20.20;;;;;;;19.08;100.00;97464.62;272885;1269;22568;-85
2023/08/06 02:17:26;;;;;;;32.10;19.50;;;;;;;19.08;100.00;97458.33;270743;1261;22483;-85
2023/08/06 02:23:33;;;;;;;33.60;21.00;;;;;;;19.09;100.00;97459.56;272374;1269;22215;-84
2023/08/06 02:29:35;;;;;;;31.70;19.20;;;;;;;19.10;100.00;97449.91;272416;1269;22365;-84
2023/08/06 02:35:40;;;;;;;26.00;18.00;;;;;;;19.08;100.00;97447.23;272587;1269;22398;-85
2023/08/06 02:41:41;;;;;;;27.00;16.80;;;;;;;19.06;100.00;97441.09;273154;1259;22199;-85
2023/08/06 02:47:43;;;;;;;21.10;13.80;;;;;;;19.06;100.00;97435.14;273023;1269;22285;-85
2023/08/06 02:53:45;;;;;;;18.50;12.60;;;;;;;19.07;100.00;97435.27;273273;1260;22274;-84
2023/08/06 02:59:48;;;;;;;17.50;13.40;;;;;;;19.07;100.00;97432.48;272918;1269;22650;-84
2023/08/06 03:05:54;;;;;;;16.90;13.40;;;;;;;19.06;100.00;97426.02;272589;1265;22194;-85
2023/08/06 03:12:02;;;;;;;15.50;11.70;;;;;;;19.06;100.00;97415.87;273101;1269;23121;-84
2023/08/06 03:18:05;;;;;;;24.70;15.60;;;;;;;19.07;100.00;97409.27;271695;1267;24379;-84
2023/08/06 03:24:14;;;;;;;24.80;15.00;;;;;;;19.07;100.00;97410.76;271728;1269;23692;-84
2023/08/06 03:30:17;;;;;;;22.50;14.80;;;;;;;19.08;100.00;97406.69;273056;1263;22226;-85
2023/08/06 03:36:19;;;;;;;31.60;19.50;;;;;;;19.07;100.00;97397.05;273299;1269;22238;-84
2023/08/06 03:42:22;;;;;;;33.90;19.10;;;;;;;19.08;100.00;97382.19;272777;1269;23455;-84
2023/08/06 03:48:31;;;;;;;54.90;27.40;;;;;;;19.10;100.00;97370.13;272805;1260;22449;-83
2023/08/06 03:54:37;;;;;;;52.20;26.20;;;;;;;19.10;100.00;97358.84;271373;1269;25316;-83
2023/08/06 04:00:39;;;;;;;54.10;27.50;;;;;;;19.08;100.00;97354.20;272049;1269;23209;-84
2023/08/06 04:06:43;;;;;;;39.70;23.10;;;;;;;19.07;100.00;97349.35;272117;1269;22205;-83
2023/08/06 04:12:45;;;;;;;47.20;24.30;;;;;;;19.07;100.00;97344.91;271912;1269;22352;-83
2023/08/06 04:18:47;;;;;;;42.00;24.10;;;;;;;19.09;100.00;97341.77;272760;1269;22367;-84
2023/08/06 04:24:48;;;;;;;63.00;27.00;;;;;;;19.09;100.00;97336.58;272991;1269;22282;-84
2023/08/06 04:30:50;;;;;;;52.20;25.40;;;;;;;19.10;100.00;97337.65;273212;1269;22432;-83
2023/08/06 04:36:53;;;;;;;52.50;25.70;;;;;;;19.10;100.00;97335.23;273115;1269;23436;-84
2023/08/06 04:42:54;;;;;;;47.60;24.50;;;;;;;19.11;100.00;97330.06;273004;1261;22497;-83
2023/08/06 04:48:57;;;;;;;39.50;23.00;;;;;;;19.14;100.00;97330.02;272559;1269;23361;-82
2023/08/06 04:55:01;;;;;;;37.80;22.00;;;;;;;19.15;100.00;97327.73;272532;1260;22156;-83
2023/08/06 05:01:03;;;;;;;29.60;20.60;;;;;;;19.15;100.00;97318.21;273285;1264;22313;-83
2023/08/06 05:07:05;;;;;;;36.30;21.90;;;;;;;19.16;100.00;97307.69;273256;1267;22260;-83
2023/08/06 05:13:07;;;;;;;29.80;19.20;;;;;;;19.15;100.00;97290.48;273421;1269;23061;-82
2023/08/06 05:19:08;;;;;;;28.70;18.40;;;;;;;19.16;100.00;97283.32;273085;1269;23484;-83
2023/08/06 05:25:14;;;;;;;24.90;17.80;;;;;;;19.20;100.00;97278.73;273209;1269;23678;-83
2023/08/06 05:31:16;;;;;;;23.50;16.50;;;;;;;19.24;100.00;97264.12;273151;1260;22298;-82
2023/08/06 05:37:18;;;;;;;23.80;17.00;;;;;;;19.26;100.00;97250.80;273124;1270;22176;-83
2023/08/06 05:43:20;;;;;;;23.10;15.40;;;;;;;19.27;100.00;97238.61;273032;1269;24318;-82
2023/08/06 05:49:31;;;;;;;21.10;15.90;;;;;;;19.30;100.00;97237.25;272347;1257;22306;-84
2023/08/06 05:55:33;;;;;;;21.00;15.00;;;;;;;19.34;100.00;97231.44;272791;1269;22441;-83
2023/08/06 06:01:43;;;;;;;19.60;14.70;;;;;;;19.39;100.00;97222.08;272527;1269;22470;-82
2023/08/06 06:07:44;;;;;;;17.80;14.20;;;;;;;19.44;100.00;97209.58;271911;1260;23725;-82
2023/08/06 06:13:46;;;;;;;19.90;14.90;;;;;;;19.47;100.00;97198.02;271592;1269;22652;-83
2023/08/06 06:19:48;;;;;;;20.20;14.30;;;;;;;19.47;100.00;97197.42;271393;1269;22566;-83
2023/08/06 06:25:52;;;;;;;15.60;11.40;;;;;;;19.49;100.00;97190.70;272655;1269;22157;-83
2023/08/06 06:31:54;;;;;;;14.50;11.00;;;;;;;19.49;100.00;97180.06;271821;1269;22618;-86
2023/08/06 06:37:59;;;;;;;13.00;10.60;;;;;;;19.47;100.00;97179.46;270854;1260;23600;-82
2023/08/06 06:44:02;;;;;;;11.90;9.90;;;;;;;19.41;100.00;97175.88;271435;1269;23284;-83
2023/08/06 06:50:05;;;;;;;12.30;8.00;;;;;;;19.35;100.00;97176.70;271122;1269;22645;-84
2023/08/06 06:56:06;;;;;;;6.80;5.30;;;;;;;19.29;100.00;97184.52;270774;1269;22890;-84
2023/08/06 07:02:10;;;;;;;6.10;5.00;;;;;;;19.20;100.00;97168.98;272277;1257;23465;-83
2023/08/06 07:08:14;;;;;;;6.20;4.80;;;;;;;19.08;100.00;97156.29;272675;1269;25365;-85
2023/08/06 07:14:17;;;;;;;5.70;4.90;;;;;;;19.01;100.00;97153.67;271896;1269;24072;-83
2023/08/06 07:20:21;;;;;;;8.30;3.70;;;;;;;18.91;100.00;97175.37;272788;1269;23766;-83
2023/08/06 07:26:23;;;;;;;3.90;1.50;;;;;;;18.75;100.00;97236.64;272515;1269;23218;-84
2023/08/06 07:32:26;;;;;;;1.50;0.90;;;;;;;18.43;100.00;97229.58;272325;1259;22330;-86
2023/08/06 07:38:29;;;;;;;6.30;1.00;;;;;;;18.24;100.00;97231.28;271908;1269;23963;-85
2023/08/06 07:44:35;;;;;;;1.90;0.90;;;;;;;18.12;100.00;97231.33;270810;1258;22577;-86
2023/08/06 07:50:37;;;;;;;4.70;0.90;;;;;;;18.01;100.00;97219.13;270966;1262;22523;-84
2023/08/06 07:56:40;;;;;;;2.40;0.40;;;;;;;17.95;100.00;97218.61;272705;1269;22563;-84
2023/08/06 08:02:42;;;;;;;0.80;0.30;;;;;;;17.86;100.00;97224.19;272350;1269;22573;-85
2023/08/06 08:08:44;;;;;;;4.70;0.20;;;;;;;17.77;100.00;97224.77;272880;1264;22387;-84
2023/08/06 08:14:47;;;;;;;1.00;0.20;;;;;;;17.67;100.00;97230.09;272701;1269;22675;-83
2023/08/06 08:20:49;;;;;;;2.20;0.20;;;;;;;17.58;100.00;97236.43;271644;1260;23570;-84
2023/08/06 08:26:51;;;;;;;0.40;0.10;;;;;;;17.48;100.00;97241.70;271459;1269;22660;-84
2023/08/06 08:32:53;;;;;;;0.50;0.30;;;;;;;17.42;100.00;97242.64;272610;1268;23599;-86
2023/08/06 08:38:56;;;;;;;1.20;0.10;;;;;;;17.39;100.00;97235.98;273130;1269;22375;-86
2023/08/06 08:45:04;;;;;;;2.60;0.50;;;;;;;17.33;100.00;97232.77;273089;1263;22844;-85
2023/08/06 08:51:09;;;;;;;2.30;0.50;;;;;;;17.24;100.00;97230.55;271362;1269;22556;-83
2023/08/06 08:57:11;;;;;;;0.80;0.30;;;;;;;17.24;100.00;97227.09;271984;1259;22324;-84
2023/08/06 09:03:12;;;;;;;0.80;0.40;;;;;;;17.26;100.00;97226.13;270443;1269;23266;-86
2023/08/06 09:09:26;;;;;;;2.00;0.40;;;;;;;17.19;100.00;97228.06;270257;1256;22419;-87
2023/08/06 09:15:30;;;;;;;2.50;0.40;;;;;;;17.16;100.00;97225.05;270530;1260;22651;-84
2023/08/06 09:21:31;;;;;;;1.90;0.40;;;;;;;17.18;100.00;97207.98;270620;1269;22553;-83
2023/08/06 09:27:33;;;;;;;1.60;0.50;;;;;;;17.23;100.00;97202.62;271100;1269;24202;-84
2023/08/06 09:33:36;;;;;;;5.90;0.40;;;;;;;17.26;100.00;97206.67;272322;1269;22442;-84
2023/08/06 09:39:40;;;;;;;2.30;0.20;;;;;;;17.23;100.00;97219.84;273598;1256;22277;-85
2023/08/06 09:45:43;;;;;;;1.00;0.40;;;;;;;17.15;100.00;97233.07;272915;1260;22170;-84
2023/08/06 09:52:06;;;;;;;0.80;0.20;;;;;;;17.08;100.00;97237.64;273025;1262;22426;-85
2023/08/06 09:58:08;;;;;;;2.10;0.30;;;;;;;16.99;100.00;97244.66;273064;1269;22352;-85
2023/08/06 10:04:26;;;;;;;0.50;0.20;;;;;;;16.92;100.00;97246.05;272670;1270;22567;-86
2023/08/06 10:10:31;;;;;;;2.20;0.40;;;;;;;16.85;100.00;97245.93;270345;1269;23366;-86
2023/08/06 10:16:34;;;;;;;2.40;0.90;;;;;;;16.83;100.00;97255.05;271778;1269;22305;-87
2023/08/06 10:22:35;;;;;;;2.60;1.40;;;;;;;16.78;100.00;97250.43;272196;1269;22502;-86
2023/08/06 10:28:42;;;;;;;2.60;0.70;;;;;;;16.67;100.00;97245.58;272669;1269;23729;-86
2023/08/06 10:34:56;;;;;;;2.90;0.50;;;;;;;16.51;100.00;97234.98;273448;1259;22214;-86
2023/08/06 10:40:59;;;;;;;3.90;1.00;;;;;;;16.46;100.00;97243.28;273411;1269;22411;-85
2023/08/06 10:47:30;;;;;;;0.70;0.30;;;;;;;16.49;100.00;97253.20;273266;1259;22420;-85
2023/08/06 10:53:32;;;;;;;1.80;0.70;;;;;;;16.46;100.00;97255.13;272325;1260;22631;-85
2023/08/06 10:59:34;;;;;;;5.30;0.60;;;;;;;16.42;100.00;97256.98;271087;1269;25360;-85
2023/08/06 11:05:36;;;;;;;2.80;1.00;;;;;;;16.37;100.00;97257.90;270385;1269;23895;-85
2023/08/06 11:11:37;;;;;;;2.50;1.50;;;;;;;16.33;100.00;97251.98;271324;1269;22572;-85
2023/08/06 11:17:41;;;;;;;2.60;0.90;;;;;;;16.30;100.00;97251.55;270294;1259;25574;-84
2023/08/06 11:23:42;;;;;;;2.00;1.10;;;;;;;16.32;100.00;97256.05;271233;1269;22559;-86
2023/08/06 11:29:44;;;;;;;5.20;1.80;;;;;;;16.30;100.00;97259.99;270927;1269;22732;-86
2023/08/06 11:35:47;;;;;;;5.90;1.80;;;;;;;16.25;100.00;97266.20;270730;1259;23373;-88
2023/08/06 11:41:49;;;;;;;3.60;0.90;;;;;;;16.17;100.00;97268.30;270561;1269;22518;-85
2023/08/06 11:47:54;;;;;;;4.30;0.70;;;;;;;16.07;100.00;97284.95;270488;1269;25394;-86
2023/08/06 11:53:57;;;;;;;0.90;0.40;;;;;;;15.98;100.00;97302.65;271452;1259;22428;-85
2023/08/06 12:00:03;;;;;;;1.10;0.40;;;;;;;15.88;100.00;97324.14;270699;1269;22291;-85
2023/08/06 12:06:14;;;;;;;1.20;0.50;;;;;;;15.83;100.00;97331.48;270180;1259;22532;-84
2023/08/06 12:12:16;;;;;;;1.70;0.40;;;;;;;15.76;100.00;97326.92;271721;1265;22369;-86
2023/08/06 12:18:33;;;;;;;1.30;0.50;;;;;;;15.72;100.00;97326.23;271776;1269;22689;-84
2023/08/06 12:24:35;;;;;;;0.90;0.20;;;;;;;15.71;100.00;97338.48;271746;1269;22552;-85
2023/08/06 12:30:42;;;;;;;0.60;0.30;;;;;;;15.72;100.00;97339.16;271269;1269;22623;-84
2023/08/06 12:36:45;;;;;;;0.30;0.30;;;;;;;15.74;100.00;97331.73;272170;1265;101118;-85
2023/08/06 12:42:46;;;;;;;2.60;0.40;;;;;;;15.80;100.00;97339.10;271258;1269;22476;-84
2023/08/06 12:48:48;;;;;;;1.30;0.40;;;;;;;15.77;100.00;97342.36;272378;1268;22555;-86
2023/08/06 12:54:50;;;;;;;0.80;0.30;;;;;;;15.68;100.00;97352.83;273532;1269;22210;-86
2023/08/06 13:00:52;;;;;;;0.30;0.20;;;;;;;15.60;100.00;97370.05;272060;1269;22699;-86
2023/08/06 13:06:53;;;;;;;0.20;0.20;;;;;;;15.60;100.00;97379.59;272230;1269;22695;-84
2023/08/06 13:12:55;;;;;;;3.00;1.10;;;;;;;15.62;100.00;97390.86;273249;1268;22386;-85
2023/08/06 13:18:56;;;;;;;2.90;1.50;;;;;;;15.61;100.00;97390.41;273179;1254;23309;-85
2023/08/06 13:24:58;;;;;;;4.80;2.70;;;;;;;15.61;100.00;97395.92;273170;1269;22375;-85
2023/08/06 13:31:00;;;;;;;4.50;1.60;;;;;;;15.55;100.00;97405.92;271743;1269;22207;-86
2023/08/06 13:37:02;;;;;;;4.70;0.90;;;;;;;15.52;100.00;97414.21;273087;1257;22306;-86
2023/08/06 13:43:04;;;;;;;1.00;0.60;;;;;;;15.50;100.00;97411.69;271168;1269;22592;-85
2023/08/06 13:49:06;;;;;;;0.80;0.40;;;;;;;15.48;100.00;97407.02;271127;1269;22636;-87
2023/08/06 13:55:08;;;;;;;2.00;0.60;;;;;;;15.47;100.00;97416.75;271139;1264;22384;-86
2023/08/06 14:01:11;;;;;;;1.10;0.60;;;;;;;15.45;100.00;97395.30;271571;1259;22552;-86
2023/08/06 14:07:12;;;;;;;1.90;0.70;;;;;;;15.44;100.00;97389.36;272338;1265;22320;-87
2023/08/06 14:13:15;;;;;;;3.80;0.80;;;;;;;15.40;100.00;97413.20;271441;1263;23364;-87
2023/08/06 14:19:18;;;;;;;4.40;3.10;;;;;;;15.44;100.00;97411.17;271437;1259;23274;-85
2023/08/06 14:25:19;;;;;;;3.50;1.90;;;;;;;15.54;100.00;97428.59;271279;1269;22279;-85
2023/08/06 14:31:27;;;;;;;3.90;1.50;;;;;;;15.66;100.00;97435.50;271950;1269;22185;-84
2023/08/06 14:37:29;;;;;;;1.70;0.80;;;;;;;15.79;100.00;97447.60;272481;1269;23390;-84
2023/08/06 14:43:31;;;;;;;1.50;0.80;;;;;;;15.93;100.00;97457.36;271073;1262;22640;-83
2023/08/06 14:49:33;;;;;;;1.90;1.10;;;;;;;16.01;100.00;97457.95;271686;1263;25325;-83
2023/08/06 14:55:34;;;;;;;3.80;1.10;;;;;;;15.99;100.00;97461.41;272496;1259;23223;-83
2023/08/06 15:01:36;;;;;;;2.20;0.70;;;;;;;16.02;100.00;97463.91;271333;1259;25413;-83
2023/08/06 15:07:38;;;;;;;1.50;0.30;;;;;;;16.05;100.00;97461.59;271132;1269;24205;-84
2023/08/06 15:13:39;;;;;;;2.70;0.50;;;;;;;16.07;100.00;97467.77;270496;1259;23755;-83
2023/08/06 15:19:41;;;;;;;2.40;0.80;;;;;;;16.06;100.00;97489.08;270471;1269;22248;-84
2023/08/06 15:25:45;;;;;;;3.10;0.90;;;;;;;16.03;100.00;97506.36;271127;1269;22227;-84
2023/08/06 15:31:46;;;;;;;2.80;1.80;;;;;;;16.00;100.00;97512.96;271436;1262;24380;-83
2023/08/06 15:37:48;;;;;;;4.00;1.60;;;;;;;15.97;100.00;97514.85;270149;1258;23849;-83
2023/08/06 15:43:50;;;;;;;9.30;2.60;;;;;;;15.99;100.00;97524.25;273062;1269;23008;-83
2023/08/06 15:49:51;;;;;;;13.80;3.90;;;;;;;16.00;100.00;97536.55;273250;1269;22471;-84
2023/08/06 15:55:53;;;;;;;8.60;3.00;;;;;;;15.98;100.00;97549.44;265617;1269;10002137;-83
2023/08/06 16:01:58;;;;;;;3.90;1.40;;;;;;;15.92;100.00;97553.02;273233;1269;22477;-83
2023/08/06 16:08:00;;;;;;;1.60;0.70;;;;;;;15.91;100.00;97571.67;273793;1276;22297;-84
2023/08/06 16:14:02;;;;;;;3.10;1.20;;;;;;;15.87;100.00;97584.34;273491;1259;22197;-83
2023/08/06 16:20:06;;;;;;;4.00;2.50;;;;;;;15.84;100.00;97592.73;273196;1253;22483;-84
2023/08/06 16:26:08;;;;;;;2.10;0.90;;;;;;;15.79;100.00;97588.07;273253;1269;22447;-84
2023/08/06 16:32:10;;;;;;;1.30;0.80;;;;;;;15.76;100.00;97588.25;273082;1269;22812;-84
2023/08/06 16:38:13;;;;;;;2.90;2.00;;;;;;;15.70;100.00;97597.89;272923;1269;22810;-84
2023/08/06 16:44:14;;;;;;;2.00;1.20;;;;;;;15.63;100.00;97604.86;273136;1258;22183;-85
2023/08/06 16:50:19;;;;;;;2.90;1.50;;;;;;;15.59;100.00;97609.50;273124;1265;22250;-84
2023/08/06 16:56:21;;;;;;;4.00;1.70;;;;;;;15.56;100.00;97617.87;271377;1269;24164;-84
2023/08/06 17:02:23;;;;;;;2.20;1.10;;;;;;;15.52;100.00;97621.91;271536;1259;22784;-84
2023/08/06 17:08:27;;;;;;;2.70;1.40;;;;;;;15.47;100.00;97621.67;272298;1266;22562;-84
2023/08/06 17:14:29;;;;;;;1.40;0.90;;;;;;;15.43;100.00;97622.98;271448;1259;22305;-84
2023/08/06 17:20:32;;;;;;;3.80;0.90;;;;;;;15.37;100.00;97625.50;273415;1259;22267;-84
2023/08/06 17:26:34;;;;;;;4.80;1.70;;;;;;;15.30;100.00;97626.65;273154;1269;22380;-84
2023/08/06 17:32:43;;;;;;;1.60;0.70;;;;;;;15.25;100.00;97636.56;273150;1269;22393;-84
2023/08/06 17:38:48;;;;;;;4.50;0.90;;;;;;;15.20;100.00;97648.98;273479;1262;23196;-84
2023/08/06 17:44:50;;;;;;;1.20;0.60;;;;;;;15.17;100.00;97650.59;273188;1269;22173;-84
2023/08/06 17:50:52;;;;;;;1.50;0.50;;;;;;;15.13;100.00;97654.73;273669;1269;23301;-84
2023/08/06 17:56:54;;;;;;;1.60;0.70;;;;;;;15.10;100.00;97661.48;273037;1269;22479;-84
2023/08/06 18:02:55;;;;;;;2.50;0.50;;;;;;;15.05;100.00;97664.25;273013;1259;22351;-84
2023/08/06 18:08:57;;;;;;;1.30;0.80;;;;;;;14.99;100.00;97661.09;273084;1269;22289;-83
2023/08/06 18:14:59;;;;;;;1.40;0.70;;;;;;;14.97;100.00;97662.64;272980;1269;22387;-83
2023/08/06 18:21:00;;;;;;;5.60;0.90;;;;;;;14.91;100.00;97666.67;272969;1263;22183;-84
2023/08/06 18:27:02;;;;;;;2.50;0.60;;;;;;;14.88;100.00;97657.06;273162;1258;22209;-84
2023/08/06 18:33:04;;;;;;;1.30;0.90;;;;;;;14.86;100.00;97654.67;273076;1266;23354;-83
2023/08/06 18:39:06;;;;;;;0.80;0.60;;;;;;;14.84;100.00;97663.33;273007;1258;22383;-84
2023/08/06 18:45:09;;;;;;;2.00;0.70;;;;;;;14.81;100.00;97675.58;273014;1269;23668;-84
2023/08/06 18:51:11;;;;;;;2.90;1.00;;;;;;;14.74;100.00;97684.35;273137;1259;22253;-83
2023/08/06 18:57:13;;;;;;;3.10;0.90;;;;;;;14.71;100.00;97694.52;273149;1269;23102;-82
2023/08/06 19:03:15;;;;;;;2.30;0.70;;;;;;;14.66;100.00;97707.48;273057;1269;22694;-83
2023/08/06 19:09:16;;;;;;;1.30;0.80;;;;;;;14.62;100.00;97714.97;271614;1269;22567;-83
2023/08/06 19:15:18;;;;;;;6.40;1.20;;;;;;;14.58;100.00;97711.94;270797;1256;22620;-83
2023/08/06 19:21:20;;;;;;;4.60;0.90;;;;;;;14.55;100.00;97717.90;272697;1259;22433;-82
2023/08/06 19:27:22;;;;;;;1.60;0.50;;;;;;;14.51;100.00;97716.89;273103;1265;22448;-84
2023/08/06 19:33:45;;;;;;;4.90;0.80;;;;;;;14.49;100.00;97714.59;273053;1261;22834;-84
2023/08/06 19:39:47;;;;;;;0.80;0.70;;;;;;;14.47;100.00;97717.06;273065;1262;23605;-84
2023/08/06 19:45:49;;;;;;;0.80;0.70;;;;;;;14.46;100.00;97714.74;272851;1265;23837;-83
2023/08/06 19:51:52;;;;;;;1.70;0.80;;;;;;;14.44;100.00;97715.50;273039;1269;24146;-83
2023/08/06 19:57:56;;;;;;;1.90;0.90;;;;;;;14.44;100.00;97716.52;273014;1269;23321;-84
2023/08/06 20:03:57;;;;;;;1.30;0.80;;;;;;;14.41;100.00;97714.24;273007;1257;23232;-84
2023/08/06 20:09:59;;;;;;;5.10;1.90;;;;;;;14.37;100.00;97713.31;273134;1269;22278;-83
2023/08/06 20:16:01;;;;;;;2.50;1.10;;;;;;;14.33;100.00;97718.45;273047;1269;22408;-84
2023/08/06 20:22:03;;;;;;;7.00;1.40;;;;;;;14.30;100.00;97717.65;273024;1264;22387;-84
2023/08/06 20:28:05;;;;;;;1.50;0.80;;;;;;;14.26;100.00;97720.17;273365;1272;22311;-84
2023/08/06 20:34:06;;;;;;;2.10;0.90;;;;;;;14.22;100.00;97717.04;272974;1269;22430;-84
2023/08/06 20:40:09;;;;;;;1.60;0.90;;;;;;;14.19;100.00;97711.90;273039;1263;22487;-84
2023/08/06 20:46:10;;;;;;;3.10;0.90;;;;;;;14.17;100.00;97703.44;273137;1268;22451;-84
2023/08/06 20:52:12;;;;;;;3.10;0.90;;;;;;;14.15;100.00;97698.47;273179;1269;23076;-84
2023/08/06 20:58:16;;;;;;;4.70;1.20;;;;;;;14.13;100.00;97699.95;273306;1269;22164;-84
2023/08/06 21:04:17;;;;;;;5.60;2.60;;;;;;;14.11;100.00;97693.92;272838;1267;23026;-84
2023/08/06 21:10:19;;;;;;;12.20;4.40;;;;;;;14.09;100.00;97699.56;271748;1270;22535;-83
2023/08/06 21:16:20;;;;;;;10.90;4.20;;;;;;;14.09;100.00;97700.66;272659;1269;22541;-84
2023/08/06 21:22:22;;;;;;;5.80;2.40;;;;;;;14.11;100.00;97698.79;271347;1253;22558;-84
2023/08/06 21:28:26;;;;;;;3.70;1.70;;;;;;;14.15;100.00;97706.09;272716;1269;22841;-85
2023/08/06 21:34:27;;;;;;;4.60;2.40;;;;;;;14.18;100.00;97701.62;273158;1270;22472;-83
2023/08/06 21:40:33;;;;;;;3.20;2.00;;;;;;;14.20;100.00;97704.09;271278;1254;23802;-84
2023/08/06 21:46:35;;;;;;;2.10;1.50;;;;;;;14.23;100.00;97706.24;271524;1269;22374;-83
2023/08/06 21:52:37;;;;;;;4.50;2.70;;;;;;;14.25;100.00;97715.16;271297;1269;23158;-83
2023/08/06 21:58:42;;;;;;;3.10;2.10;;;;;;;14.26;100.00;97719.71;273156;1264;23085;-83
2023/08/06 22:04:44;;;;;;;5.10;2.60;;;;;;;14.24;100.00;97721.71;273178;1268;22467;-84
2023/08/06 22:10:47;;;;;;;4.80;2.30;;;;;;;14.23;100.00;97725.33;273163;1269;22175;-85
2023/08/06 22:16:49;;;;;;;4.50;2.90;;;;;;;14.25;100.00;97733.33;273365;1265;23064;-83
2023/08/06 22:22:51;;;;;;;5.80;4.30;;;;;;;14.25;100.00;97740.48;273111;1260;22524;-83
2023/08/06 22:28:55;;;;;;;10.40;8.40;;;;;;;14.23;100.00;97748.86;273180;1269;22305;-83
2023/08/06 22:34:57;;;;;;;9.40;6.90;;;;;;;14.18;100.00;97754.00;272359;1254;25515;-83
2023/08/06 22:40:58;;;;;;;6.00;4.00;;;;;;;14.15;100.00;97760.84;272031;1263;23023;-83
2023/08/06 22:47:00;;;;;;;4.20;2.40;;;;;;;14.15;100.00;97763.05;273199;1258;22382;-83
2023/08/06 22:53:02;;;;;;;4.40;1.90;;;;;;;14.17;100.00;97772.02;270935;1269;23744;-83
2023/08/06 22:59:03;;;;;;;4.40;2.00;;;;;;;14.18;100.00;97772.95;270307;1269;23710;-83
2023/08/06 23:05:05;;;;;;;3.40;1.70;;;;;;;14.18;100.00;97777.59;272451;1269;22384;-83
2023/08/06 23:11:08;;;;;;;2.50;1.70;;;;;;;14.16;100.00;97784.85;272774;1269;22461;-83
2023/08/06 23:17:09;;;;;;;4.30;2.00;;;;;;;14.19;100.00;97797.22;272115;1259;22883;-83
2023/08/06 23:23:11;;;;;;;2.90;2.10;;;;;;;14.20;100.00;97793.89;273206;1257;22408;-83
2023/08/06 23:29:12;;;;;;;3.40;2.20;;;;;;;14.22;100.00;97791.43;273062;1269;22504;-83
2023/08/06 23:35:19;;;;;;;4.00;1.90;;;;;;;14.19;100.00;97780.94;272349;1261;22203;-83
2023/08/06 23:41:21;;;;;;;4.50;1.90;;;;;;;14.19;100.00;97776.94;272744;1267;22215;-82
2023/08/06 23:47:23;;;;;;;2.40;2.00;;;;;;;14.18;100.00;97779.48;273001;1253;22399;-83
2023/08/06 23:53:28;;;;;;;3.20;2.10;;;;;;;14.19;100.00;97779.67;273177;1258;22219;-83
2023/08/06 23:59:29;;;;;;;2.80;1.70;;;;;;;14.21;100.00;97779.33;271928;1260;22445;-83
